Terminal Aerodrome Forecast
Issued by NWS Atlanta, GA

Home | Current Version | Previous Version | Text Only | Print | Product List | Glossary On
Versions: 1 2 3 4 5 6 7 8 9 10 11 12 13 14 15 16 17 18 19 20 21 22 23
000
FTUS42 KFFC 031304 AAA
TAFCSG
TAF AMD
KCSG 031304Z 0313/0412 00000KT P6SM SKC
     FM031400 VRB03KT P6SM SCT020 SCT060
     FM031700 VRB05KT P6SM VCSH SCT035 BKN050 PROB30 0322/0401
      VRB15G25KT 6SM TSRA BKN045CB
     FM040100 09005KT P6SM SCT050 SCT100
     FM041000 09005KT P6SM SCT006 SCT050=

USA.gov is the U.S. government's official web portal to all federal, state and local government web resources and services.